createdAt,value
2019-01-28T00:02:21.025Z,0.50
2019-01-28T00:04:48.332Z,0.50
2019-01-28T00:07:16.259Z,0.70
2019-01-28T00:09:43.659Z,0.50
2019-01-28T00:12:11.071Z,0.70
2019-01-28T00:14:38.369Z,0.60
2019-01-28T00:17:05.719Z,0.42
2019-01-28T00:19:33.513Z,0.50
2019-01-28T00:22:00.816Z,0.62
2019-01-28T00:24:28.243Z,0.70
2019-01-28T00:26:55.653Z,0.65
2019-01-28T00:29:23.047Z,0.80
2019-01-28T00:31:50.387Z,0.90
2019-01-28T00:34:17.781Z,0.90
2019-01-28T00:36:45.136Z,1.10
2019-01-28T00:39:12.538Z,1.42
2019-01-28T00:41:39.833Z,1.30
2019-01-28T00:44:07.556Z,1.15
2019-01-28T00:46:34.878Z,0.85
2019-01-28T00:49:02.162Z,0.95
2019-01-28T00:51:29.473Z,1.47
2019-01-28T00:53:56.781Z,0.80
2019-01-28T00:56:24.540Z,1.00
2019-01-28T00:58:51.964Z,1.20
2019-01-28T01:01:19.370Z,0.90
2019-01-28T01:03:46.773Z,0.70
2019-01-28T01:06:14.153Z,0.90
2019-01-28T01:08:41.357Z,1.32
2019-01-28T01:11:08.679Z,1.60
2019-01-28T01:13:36.138Z,1.20
2019-01-28T01:16:03.589Z,1.55
2019-01-28T01:18:30.991Z,1.02
2019-01-28T01:20:58.234Z,1.15
2019-01-28T01:23:25.987Z,1.10
2019-01-28T01:25:53.283Z,0.85
2019-01-28T01:28:20.693Z,0.80
2019-01-28T01:30:48.027Z,1.10
2019-01-28T01:33:15.326Z,0.72
2019-01-28T01:35:42.732Z,1.00
2019-01-28T01:38:10.041Z,1.00
2019-01-28T01:40:37.326Z,1.05
2019-01-28T01:43:04.738Z,0.88
2019-01-28T01:45:32.019Z,1.00
2019-01-28T01:47:59.371Z,0.78
2019-01-28T01:50:26.685Z,0.75
2019-01-28T01:52:54.045Z,0.80
2019-01-28T01:55:21.431Z,1.10
2019-01-28T01:57:48.753Z,1.25
2019-01-28T02:00:17.683Z,1.22
2019-01-28T02:02:45.003Z,2.12
2019-01-28T02:05:12.935Z,3.67
2019-01-28T02:07:40.254Z,5.08
2019-01-28T02:10:09.420Z,6.20
2019-01-28T02:12:36.817Z,4.40
2019-01-28T02:15:06.015Z,1.70
2019-01-28T02:17:33.349Z,1.55
2019-01-28T02:20:00.686Z,1.40
2019-01-28T02:22:28.092Z,1.20
2019-01-28T02:24:55.428Z,1.30
2019-01-28T02:27:22.811Z,1.98
2019-01-28T02:29:50.202Z,2.50
2019-01-28T02:32:17.540Z,4.35
2019-01-28T02:34:44.938Z,2.87
2019-01-28T02:37:12.247Z,4.03
2019-01-28T02:39:39.647Z,3.90
2019-01-28T02:42:06.925Z,3.47
2019-01-28T02:44:34.229Z,3.00
2019-01-28T02:47:01.515Z,4.30
2019-01-28T02:49:28.869Z,5.65
2019-01-28T02:51:56.296Z,3.30
2019-01-28T02:54:23.708Z,4.30
2019-01-28T02:56:51.114Z,5.28
2019-01-28T02:59:18.550Z,5.25
2019-01-28T03:01:45.964Z,5.03
2019-01-28T03:04:13.382Z,5.10
2019-01-28T03:06:40.780Z,5.20
2019-01-28T03:09:08.279Z,3.90
2019-01-28T03:11:35.755Z,5.00
2019-01-28T03:14:03.586Z,4.28
2019-01-28T03:16:31.043Z,4.72
2019-01-28T03:18:58.719Z,5.20
2019-01-28T03:21:26.134Z,4.80
2019-01-28T03:23:53.893Z,4.83
2019-01-28T03:26:21.735Z,5.95
2019-01-28T03:28:49.116Z,3.50
2019-01-28T03:31:16.661Z,3.85
2019-01-28T03:33:44.088Z,3.35
2019-01-28T03:36:11.483Z,2.87
2019-01-28T03:38:39.247Z,2.60
2019-01-28T03:41:06.585Z,2.17
2019-01-28T03:43:33.987Z,2.40
2019-01-28T03:46:01.320Z,2.65
2019-01-28T03:48:28.722Z,3.20
2019-01-28T03:50:56.165Z,1.60
2019-01-28T03:53:23.634Z,1.50
2019-01-28T03:55:51.340Z,1.85
2019-01-28T03:58:18.770Z,2.10
2019-01-28T04:00:46.050Z,2.70
2019-01-28T04:03:13.716Z,1.62
2019-01-28T04:05:41.067Z,2.30
2019-01-28T04:08:08.446Z,1.17
2019-01-28T04:10:35.771Z,1.98
2019-01-28T04:13:03.099Z,2.10
2019-01-28T04:15:32.469Z,2.17
2019-01-28T04:17:59.593Z,2.02
2019-01-28T04:20:27.035Z,2.15
2019-01-28T04:22:54.471Z,1.62
2019-01-28T04:25:23.875Z,2.00
2019-01-28T04:27:51.146Z,2.05
2019-01-28T04:30:20.227Z,2.65
2019-01-28T04:32:47.642Z,3.25
2019-01-28T04:35:14.888Z,3.60
2019-01-28T04:37:42.288Z,4.17
2019-01-28T04:40:09.734Z,3.40
2019-01-28T04:42:37.180Z,2.95
2019-01-28T04:45:07.443Z,2.10
2019-01-28T04:47:34.865Z,1.80
2019-01-28T04:50:02.567Z,4.20
2019-01-28T04:52:29.984Z,4.80
2019-01-28T04:54:57.346Z,3.90
2019-01-28T04:57:24.670Z,4.42
2019-01-28T04:59:52.073Z,3.60
2019-01-28T05:02:19.490Z,2.92
2019-01-28T05:04:46.910Z,2.25
2019-01-28T05:07:14.270Z,1.30
2019-01-28T05:09:41.637Z,1.50
2019-01-28T05:12:09.775Z,1.35
2019-01-28T05:14:37.171Z,1.20
2019-01-28T05:17:04.753Z,0.93
2019-01-28T05:19:32.129Z,1.10
2019-01-28T05:21:59.513Z,1.40
2019-01-28T05:24:26.989Z,1.32
2019-01-28T05:26:54.455Z,1.20
2019-01-28T05:29:21.835Z,1.15
2019-01-28T05:31:49.273Z,0.80
2019-01-28T05:34:16.659Z,1.10
2019-01-28T05:36:44.048Z,1.00
2019-01-28T05:39:11.379Z,1.20
2019-01-28T05:41:38.808Z,1.45
2019-01-28T05:44:06.089Z,1.90
2019-01-28T05:46:33.494Z,2.42
2019-01-28T05:49:00.823Z,2.80
2019-01-28T05:51:28.118Z,2.90
2019-01-28T05:53:55.512Z,3.75
2019-01-28T05:56:22.828Z,5.33
2019-01-28T05:58:50.175Z,6.40
2019-01-28T06:01:17.474Z,4.12
2019-01-28T06:03:44.799Z,5.40
2019-01-28T06:06:12.249Z,3.90
2019-01-28T06:08:39.674Z,2.50
2019-01-28T06:11:07.003Z,2.50
2019-01-28T06:13:34.438Z,3.00
2019-01-28T06:16:01.916Z,2.15
2019-01-28T06:18:29.580Z,2.47
2019-01-28T06:20:57.202Z,2.60
2019-01-28T06:23:24.594Z,2.05
2019-01-28T06:25:51.903Z,2.10
2019-01-28T06:28:19.355Z,1.90
2019-01-28T06:30:46.685Z,1.35
2019-01-28T06:33:14.010Z,1.25
2019-01-28T06:35:41.522Z,1.20
2019-01-28T06:38:08.849Z,1.60
2019-01-28T06:40:36.207Z,1.20
2019-01-28T06:43:03.947Z,1.17
2019-01-28T06:45:31.372Z,2.22
2019-01-28T06:47:58.699Z,3.25
2019-01-28T06:50:26.126Z,4.60
2019-01-28T06:52:53.433Z,4.67
2019-01-28T06:55:20.990Z,3.50
2019-01-28T06:57:48.764Z,3.33
2019-01-28T07:00:22.161Z,2.55
2019-01-28T07:02:49.470Z,2.47
2019-01-28T07:05:16.763Z,2.58
2019-01-28T07:07:47.612Z,2.55
2019-01-28T07:10:14.913Z,2.80
2019-01-28T07:12:42.221Z,1.87
2019-01-28T07:15:10.036Z,1.60
2019-01-28T07:17:37.389Z,2.50
2019-01-28T07:20:07.283Z,2.35
2019-01-28T07:22:34.707Z,3.58
2019-01-28T07:25:02.024Z,3.60
2019-01-28T07:27:29.428Z,3.62
2019-01-28T07:29:56.742Z,3.50
2019-01-28T07:32:24.220Z,3.22
2019-01-28T07:34:51.621Z,3.50
2019-01-28T07:37:18.943Z,2.75
2019-01-28T07:39:47.005Z,2.80
2019-01-28T07:42:14.345Z,2.98
2019-01-28T07:44:41.827Z,3.20
2019-01-28T07:47:09.240Z,4.03
2019-01-28T07:49:36.661Z,2.72
2019-01-28T07:52:04.398Z,2.90
2019-01-28T07:54:31.797Z,3.10
2019-01-28T07:56:59.323Z,2.30
2019-01-28T07:59:26.761Z,1.95
2019-01-28T08:01:54.104Z,1.92
2019-01-28T08:04:21.501Z,2.30
2019-01-28T08:06:48.944Z,1.67
2019-01-28T08:09:16.409Z,1.98
2019-01-28T08:11:43.627Z,1.75
2019-01-28T08:14:11.016Z,1.90
2019-01-28T08:16:38.391Z,1.55
2019-01-28T08:19:05.719Z,2.05
2019-01-28T08:21:33.144Z,1.80
2019-01-28T08:24:00.565Z,2.17
2019-01-28T08:26:27.983Z,2.00
2019-01-28T08:28:55.306Z,2.15
2019-01-28T08:31:22.709Z,6.47
2019-01-28T08:33:50.039Z,6.83
2019-01-28T08:36:17.267Z,2.33
2019-01-28T08:38:45.149Z,1.77
2019-01-28T08:41:12.518Z,1.42
2019-01-28T08:43:59.339Z,1.70
2019-01-28T08:46:30.203Z,1.52
2019-01-28T08:48:57.722Z,1.50
2019-01-28T08:51:25.065Z,2.17
2019-01-28T08:53:52.839Z,2.58
2019-01-28T08:56:20.273Z,2.60
2019-01-28T08:58:47.628Z,2.27
2019-01-28T09:01:15.059Z,2.98
2019-01-28T09:03:42.481Z,3.52
2019-01-28T09:06:09.917Z,2.10
2019-01-28T09:08:37.360Z,2.90
2019-01-28T09:11:04.819Z,2.75
2019-01-28T09:13:32.147Z,3.02
2019-01-28T09:15:59.579Z,2.92
2019-01-28T09:18:27.002Z,2.30
2019-01-28T09:20:54.428Z,2.50
2019-01-28T09:23:21.837Z,3.55
2019-01-28T09:25:51.724Z,3.92
2019-01-28T09:28:19.168Z,4.20
2019-01-28T09:30:46.586Z,3.45
2019-01-28T09:33:14.399Z,3.10
2019-01-28T09:35:41.773Z,3.75
2019-01-28T09:38:09.181Z,3.45
2019-01-28T09:40:36.948Z,4.12
2019-01-28T09:43:05.111Z,4.08
2019-01-28T09:45:34.754Z,3.22
2019-01-28T09:48:03.966Z,2.70
2019-01-28T09:50:31.299Z,4.45
2019-01-28T09:52:59.783Z,4.92
2019-01-28T09:55:29.493Z,3.60
2019-01-28T09:57:56.929Z,3.55
2019-01-28T10:00:32.415Z,2.70
2019-01-28T10:02:59.890Z,3.40
2019-01-28T10:05:27.257Z,2.80
2019-01-28T10:07:54.742Z,2.65
2019-01-28T10:10:22.676Z,2.90
2019-01-28T10:12:50.169Z,3.17
2019-01-28T10:15:18.899Z,3.27
2019-01-28T10:17:46.390Z,1.65
2019-01-28T10:20:19.815Z,1.87
2019-01-28T10:22:47.405Z,3.50
2019-01-28T10:25:15.523Z,2.35
2019-01-28T10:27:43.041Z,2.65
2019-01-28T10:30:14.039Z,2.05
2019-01-28T10:32:41.548Z,1.87
2019-01-28T10:35:09.374Z,2.47
2019-01-28T10:37:36.594Z,1.80
2019-01-28T10:40:07.162Z,2.40
2019-01-28T10:42:34.554Z,1.60
2019-01-28T10:45:02.009Z,1.17
2019-01-28T10:47:29.328Z,1.35
2019-01-28T10:49:56.649Z,2.00
2019-01-28T10:52:25.257Z,1.80
2019-01-28T10:54:52.654Z,1.90
2019-01-28T10:57:19.873Z,2.20
2019-01-28T10:59:47.190Z,1.75
2019-01-28T11:02:14.814Z,1.70
2019-01-28T11:04:42.252Z,1.87
2019-01-28T11:07:09.832Z,2.02
2019-01-28T11:09:37.335Z,1.70
2019-01-28T11:12:06.057Z,1.82
2019-01-28T11:14:33.640Z,2.42
2019-01-28T11:17:01.260Z,1.50
2019-01-28T11:19:28.785Z,1.50
2019-01-28T11:21:56.358Z,1.85
2019-01-28T11:24:23.907Z,1.70
2019-01-28T11:26:51.324Z,1.37
2019-01-28T11:29:18.852Z,1.47
2019-01-28T11:31:46.497Z,1.77
2019-01-28T11:34:14.170Z,1.80
2019-01-28T11:36:41.723Z,1.87
2019-01-28T11:39:10.289Z,1.30
2019-01-28T11:41:37.742Z,1.50
2019-01-28T11:44:05.394Z,2.05
2019-01-28T11:46:32.925Z,2.40
2019-01-28T11:49:05.784Z,1.57
2019-01-28T11:51:29.562Z,1.85
2019-01-28T11:53:56.962Z,1.60
2019-01-28T11:56:24.367Z,1.90
2019-01-28T11:58:51.810Z,2.12
2019-01-28T12:01:37.234Z,2.25
2019-01-28T12:04:04.690Z,2.00
2019-01-28T12:06:32.131Z,1.30
2019-01-28T12:09:04.541Z,2.40
2019-01-28T12:11:32.368Z,2.17
2019-01-28T12:13:59.778Z,1.40
2019-01-28T12:16:27.579Z,1.45
2019-01-28T12:18:54.902Z,1.25
2019-01-28T12:21:22.258Z,1.62
2019-01-28T12:23:49.706Z,3.20
2019-01-28T12:26:17.100Z,1.82
2019-01-28T12:28:44.526Z,1.95
2019-01-28T12:31:13.674Z,1.45
2019-01-28T12:33:41.415Z,1.75
2019-01-28T12:36:08.741Z,1.80
2019-01-28T12:38:36.143Z,2.05
2019-01-28T12:41:03.742Z,1.80
2019-01-28T12:43:31.197Z,1.42
2019-01-28T12:45:58.670Z,1.85
2019-01-28T12:48:26.232Z,1.92
2019-01-28T12:50:54.006Z,2.45
2019-01-28T12:53:22.777Z,1.30
2019-01-28T12:55:50.163Z,1.80
2019-01-28T12:58:17.526Z,1.50
2019-01-28T13:00:49.340Z,2.47
2019-01-28T13:03:17.233Z,1.62
2019-01-28T13:05:44.891Z,1.87
2019-01-28T13:08:12.219Z,1.50
2019-01-28T13:10:39.913Z,1.55
2019-01-28T13:13:07.271Z,1.85
2019-01-28T13:15:35.132Z,1.45
2019-01-28T13:18:02.541Z,3.08
2019-01-28T13:20:29.964Z,1.50
2019-01-28T13:22:57.363Z,1.45
2019-01-28T13:25:25.561Z,2.90
2019-01-28T13:27:52.971Z,2.40
2019-01-28T13:30:22.826Z,1.62
2019-01-28T13:32:50.532Z,1.10
2019-01-28T13:35:20.896Z,1.62
2019-01-28T13:37:48.342Z,2.10
2019-01-28T13:40:17.774Z,2.05
2019-01-28T13:42:45.179Z,1.82
2019-01-28T13:45:14.746Z,1.75
2019-01-28T13:47:42.228Z,2.05
2019-01-28T13:50:15.055Z,1.60
2019-01-28T13:52:46.861Z,1.62
2019-01-28T13:55:14.481Z,1.55
2019-01-28T13:57:41.880Z,1.67
2019-01-28T14:00:15.502Z,1.45
2019-01-28T14:02:42.947Z,1.25
2019-01-28T14:05:10.625Z,1.80
2019-01-28T14:07:38.301Z,1.50
2019-01-28T14:10:07.426Z,1.50
2019-01-28T14:12:34.797Z,1.05
2019-01-28T14:15:02.630Z,2.00
2019-01-28T14:17:30.030Z,1.70
2019-01-28T14:19:57.447Z,1.40
2019-01-28T14:22:24.806Z,1.27
2019-01-28T14:24:53.306Z,1.10
2019-01-28T14:27:20.726Z,1.75
2019-01-28T14:29:48.201Z,1.15
2019-01-28T14:32:15.631Z,0.98
2019-01-28T14:34:43.079Z,1.00
2019-01-28T14:37:10.564Z,1.62
2019-01-28T14:39:38.376Z,2.02
2019-01-28T14:42:05.805Z,2.17
2019-01-28T14:44:33.296Z,2.77
2019-01-28T14:47:00.638Z,1.90
2019-01-28T14:49:32.351Z,2.10
2019-01-28T14:51:57.535Z,3.15
2019-01-28T14:54:24.996Z,2.20
2019-01-28T14:56:52.386Z,1.95
2019-01-28T14:59:19.884Z,2.00
2019-01-28T15:01:47.427Z,1.85
2019-01-28T15:04:15.601Z,3.30
2019-01-28T15:06:43.174Z,2.83
2019-01-28T15:09:11.337Z,3.17
2019-01-28T15:11:38.835Z,1.90
2019-01-28T15:14:06.385Z,2.98
2019-01-28T15:16:33.714Z,3.37
2019-01-28T15:19:01.141Z,3.52
2019-01-28T15:21:28.495Z,2.85
2019-01-28T15:23:55.856Z,2.90
2019-01-28T15:26:23.371Z,7.90
2019-01-28T15:28:51.006Z,2.10
2019-01-28T15:31:18.752Z,2.45
2019-01-28T15:33:46.117Z,2.30
2019-01-28T15:36:13.662Z,2.65
2019-01-28T15:38:41.115Z,4.40
2019-01-28T15:41:08.599Z,2.10
2019-01-28T15:43:35.978Z,2.15
2019-01-28T15:46:04.416Z,2.65
2019-01-28T15:48:31.971Z,2.47
2019-01-28T15:51:00.716Z,3.15
2019-01-28T15:53:28.136Z,3.72
2019-01-28T15:55:55.976Z,3.92
2019-01-28T15:58:23.332Z,4.15
2019-01-28T16:00:50.784Z,4.25
2019-01-28T16:03:18.777Z,4.30
2019-01-28T16:05:46.219Z,3.95
2019-01-28T16:08:13.741Z,3.20
2019-01-28T16:10:41.370Z,4.37
2019-01-28T16:13:08.793Z,3.35
2019-01-28T16:15:38.485Z,2.72
2019-01-28T16:18:08.901Z,4.37
2019-01-28T16:20:35.229Z,3.37
2019-01-28T16:23:03.077Z,4.20
2019-01-28T16:25:30.450Z,3.92
2019-01-28T16:27:57.880Z,3.75
2019-01-28T16:30:26.802Z,4.95
2019-01-28T16:32:54.298Z,4.53
2019-01-28T16:35:22.258Z,4.85
2019-01-28T16:37:50.146Z,4.67
2019-01-28T16:40:19.075Z,4.25
2019-01-28T16:42:46.569Z,3.98
2019-01-28T16:45:16.967Z,4.05
2019-01-28T16:47:44.377Z,3.42
2019-01-28T16:50:14.494Z,4.35
2019-01-28T16:52:42.272Z,4.50
2019-01-28T16:55:10.548Z,6.60
2019-01-28T16:57:39.275Z,34.90
2019-01-28T17:00:13.739Z,27.30
2019-01-28T17:02:41.164Z,26.40
2019-01-28T17:05:09.786Z,35.30
2019-01-28T17:07:38.116Z,39.63
2019-01-28T17:10:07.119Z,33.50
2019-01-28T17:12:34.510Z,25.23
2019-01-28T17:15:01.892Z,23.35
2019-01-28T17:17:29.340Z,19.12
2019-01-28T17:19:57.078Z,20.57
2019-01-28T17:22:24.452Z,18.80
2019-01-28T17:24:51.841Z,18.98
2019-01-28T17:27:19.549Z,21.60
2019-01-28T17:29:48.693Z,18.62
2019-01-28T17:32:16.037Z,20.15
2019-01-28T17:34:43.488Z,16.93
2019-01-28T17:37:10.929Z,16.93
2019-01-28T17:39:38.511Z,17.98
2019-01-28T17:42:06.246Z,16.23
2019-01-28T17:44:33.651Z,16.52
2019-01-28T17:47:01.157Z,17.40
2019-01-28T17:49:28.618Z,17.85
2019-01-28T17:51:56.090Z,21.07
2019-01-28T17:54:23.593Z,22.75
2019-01-28T17:56:51.054Z,23.95
2019-01-28T17:59:18.527Z,30.50
2019-01-28T18:01:46.045Z,21.48
2019-01-28T18:04:13.540Z,18.45
2019-01-28T18:06:40.977Z,18.20
2019-01-28T18:09:08.807Z,18.42
2019-01-28T18:11:36.827Z,15.72
2019-01-28T18:14:04.501Z,14.65
2019-01-28T18:16:31.971Z,14.80
2019-01-28T18:18:59.541Z,14.95
2019-01-28T18:21:27.174Z,14.63
2019-01-28T18:23:55.017Z,15.58
2019-01-28T18:26:23.015Z,15.08
2019-01-28T18:28:50.507Z,15.10
2019-01-28T18:31:17.967Z,16.12
2019-01-28T18:33:45.730Z,17.77
2019-01-28T18:36:13.232Z,21.23
2019-01-28T18:38:40.983Z,18.85
2019-01-28T18:41:08.582Z,17.37
2019-01-28T18:43:36.354Z,18.20
2019-01-28T18:46:04.391Z,18.27
2019-01-28T18:48:32.167Z,18.20
2019-01-28T18:51:00.051Z,18.07
2019-01-28T18:53:27.769Z,16.65
2019-01-28T18:55:55.777Z,15.35
2019-01-28T18:58:23.366Z,16.73
2019-01-28T19:00:50.865Z,15.88
2019-01-28T19:03:18.363Z,16.23
2019-01-28T19:06:05.370Z,17.23
2019-01-28T19:08:50.243Z,17.35
2019-01-28T19:11:39.963Z,13.20
2019-01-28T19:14:17.607Z,13.10
2019-01-28T19:17:04.796Z,14.50
2019-01-28T19:19:54.608Z,13.53
2019-01-28T19:22:26.107Z,9.10
2019-01-28T19:24:53.981Z,9.75
2019-01-28T19:27:21.657Z,8.88
2019-01-28T19:29:49.174Z,8.53
2019-01-28T19:32:16.871Z,8.35
2019-01-28T19:34:44.380Z,8.35
2019-01-28T19:37:11.967Z,7.50
2019-01-28T19:39:40.969Z,8.20
2019-01-28T19:42:08.798Z,7.20
2019-01-28T19:44:36.622Z,7.75
2019-01-28T19:47:04.408Z,7.70
2019-01-28T19:49:32.016Z,8.40
2019-01-28T19:51:59.618Z,6.95
2019-01-28T19:54:27.100Z,7.87
2019-01-28T19:56:56.784Z,7.85
2019-01-28T19:59:24.402Z,11.03
2019-01-28T20:01:52.375Z,12.10
2019-01-28T20:04:19.885Z,11.85
2019-01-28T20:06:47.530Z,12.65
2019-01-28T20:09:15.060Z,10.43
2019-01-28T20:11:42.568Z,8.23
2019-01-28T20:14:10.555Z,7.35
2019-01-28T20:16:39.536Z,7.60
2019-01-28T20:19:07.232Z,8.50
2019-01-28T20:21:34.727Z,7.80
2019-01-28T20:24:02.253Z,8.23
2019-01-28T20:26:29.862Z,9.73
2019-01-28T20:28:57.410Z,7.03
2019-01-28T20:31:24.994Z,7.75
2019-01-28T20:33:52.494Z,8.80
2019-01-28T20:36:20.238Z,10.10
2019-01-28T20:38:48.150Z,9.93
2019-01-28T20:41:15.611Z,7.30
2019-01-28T20:43:43.310Z,5.87
2019-01-28T20:46:11.067Z,5.83
2019-01-28T20:48:39.072Z,7.62
2019-01-28T20:51:06.666Z,5.83
2019-01-28T20:53:34.213Z,5.47
2019-01-28T20:56:01.929Z,6.20
2019-01-28T20:58:29.504Z,18.65
2019-01-28T21:00:57.143Z,5.10
2019-01-28T21:03:24.755Z,7.55
2019-01-28T21:05:52.350Z,7.58
2019-01-28T21:08:19.994Z,6.75
2019-01-28T21:10:47.880Z,7.20
2019-01-28T21:13:15.445Z,6.45
2019-01-28T21:15:42.847Z,5.78
2019-01-28T21:18:10.512Z,6.25
2019-01-28T21:20:38.325Z,7.50
2019-01-28T21:23:06.180Z,6.78
2019-01-28T21:25:33.511Z,8.70
2019-01-28T21:28:01.194Z,7.67
2019-01-28T21:30:30.592Z,8.10
2019-01-28T21:32:58.501Z,6.40
2019-01-28T21:35:44.122Z,10.30
2019-01-28T21:38:14.628Z,9.80
2019-01-28T21:40:42.113Z,7.67
2019-01-28T21:43:09.609Z,7.42
2019-01-28T21:45:37.054Z,11.15
2019-01-28T21:48:05.239Z,8.25
2019-01-28T21:50:33.070Z,9.98
2019-01-28T21:53:00.531Z,7.50
2019-01-28T21:55:27.983Z,6.97
2019-01-28T21:57:55.464Z,8.20
2019-01-28T22:00:23.030Z,10.68
2019-01-28T22:02:50.614Z,7.50
2019-01-28T22:05:18.104Z,7.35
2019-01-28T22:07:45.970Z,8.83
2019-01-28T22:10:13.789Z,9.03
2019-01-28T22:12:41.247Z,8.28
2019-01-28T22:15:11.739Z,9.55
2019-01-28T22:17:39.155Z,10.75
2019-01-28T22:20:07.387Z,9.85
2019-01-28T22:22:34.809Z,8.18
2019-01-28T22:25:02.398Z,7.37
2019-01-28T22:27:29.936Z,7.67
2019-01-28T22:29:57.398Z,8.70
2019-01-28T22:32:24.994Z,10.03
2019-01-28T22:34:52.296Z,8.60
2019-01-28T22:37:19.624Z,8.03
2019-01-28T22:39:47.432Z,8.45
2019-01-28T22:42:21.238Z,10.05
2019-01-28T22:44:43.973Z,7.70
2019-01-28T22:47:11.294Z,10.60
2019-01-28T22:49:38.626Z,11.43
2019-01-28T22:52:07.992Z,11.35
2019-01-28T22:54:35.335Z,8.90
2019-01-28T22:57:03.115Z,7.47
2019-01-28T22:59:30.726Z,6.70
2019-01-28T23:01:58.127Z,6.45
2019-01-28T23:04:25.549Z,6.40
2019-01-28T23:06:52.877Z,5.65
2019-01-28T23:09:20.192Z,5.83
2019-01-28T23:11:47.490Z,7.78
2019-01-28T23:14:14.820Z,5.40
2019-01-28T23:16:42.087Z,11.78
2019-01-28T23:19:09.702Z,6.30
2019-01-28T23:21:37.048Z,5.97
2019-01-28T23:24:04.483Z,5.75
2019-01-28T23:26:31.900Z,6.55
2019-01-28T23:28:59.205Z,6.05
2019-01-28T23:31:26.603Z,7.80
2019-01-28T23:33:53.905Z,9.00
2019-01-28T23:36:21.296Z,9.10
2019-01-28T23:38:48.633Z,8.05
2019-01-28T23:41:16.741Z,9.15
2019-01-28T23:43:44.058Z,9.00
2019-01-28T23:46:11.476Z,8.70
2019-01-28T23:48:38.852Z,4.60
2019-01-28T23:51:06.220Z,6.28
2019-01-28T23:53:33.528Z,5.00
2019-01-28T23:56:00.862Z,5.55
2019-01-28T23:58:28.184Z,10.03
